Historyczne dane pomiarowe

Dodano dane terminowe – wersja testowa.

Dane z okresu 1951-2019

Wersja bazy: 1.34 [2019-03-16, lista zmian], aktualizacja planowana na 2019-04-15

Dane meteo z obszaru Polski uzyskane na podstawie danych udostępnionych przez Instytut Meteorologii i Gospodarki Wodnej – Państwowy Instytut Badawczy.

 

Wybierz Datę:    

       

TemperaturaWilgotnośćWiatrCiśnienieOpadyŚniegCzas trwania zjawisk
 Stacja t tx tn tng RH VA  wxwx mslp ppp RRR   cm mm wxwxwxwxwxwxwx
1956-11-09 -6.1 -3.7-11.6-13.6 77.8- 5.0 0.3---- 0.0-- 7---------
1956-11-08 -5.5 -0.8 -8.0-15.3 68.5- 1.0 0.3---- 0.0-- 8---------
1956-11-07 -1.1 0.2 -1.4 -0.7 96.5- 8.0 2.3---- 3.3-- 7---------
1956-11-06 0.4 5.6 -0.5 -1.7 88.8- 7.0 4.3---- 7.5------------
1956-11-05 4.8 6.0 -1.2 -6.4 81.0- 8.0 6.7---- 2.1------------
1956-11-04 -0.5 3.1 -2.6 -4.1 71.0- 4.0 0.7---- 0.0-- 1---------
1956-11-03 -1.2 1.6 -3.4 -4.6 87.8- 6.0 0.0---- 0.5------------
1956-11-02 0.0 4.0 -2.3 -7.4 78.3- 5.3 1.7---- 0.0------------
1956-11-01 -1.6 5.3 -8.9-11.6 75.0- 0.0 0.0---- 0.0------------
1956-10-31 -4.0 3.6 -5.7 -0.7 85.3- 5.0 4.0---- 0.0------------
1956-10-30 4.0 5.6 2.0 2.0 94.5- 8.0 2.3---- 0.6------------
1956-10-29 3.0 5.4 1.9 2.4 86.0- 7.7 3.0---- 5.4------------
1956-10-28 6.8 10.6 4.9 3.5 85.5- 5.3 1.0---- 4.1------------
1956-10-27 10.5 15.4 6.4 5.4 84.8- 5.0 1.0---- 0.0------------
1956-10-26 7.6 11.5 6.8 2.6 96.5- 7.7 2.0---- 0.7------------
1956-10-25 12.3 15.9 6.3 0.8 67.5- 0.0 4.7---- 0.0------------
1956-10-24 10.2 16.7 6.7 2.3 81.8- 2.0 1.3---- 0.0------------
1956-10-23 10.7 16.3 5.6 2.4 86.5- 0.0 0.7---- 0.0------------
1956-10-22 11.8 17.9 5.4 2.7 78.3- 0.0 1.0---- 0.0------------
1956-10-21 11.7 16.2 8.4 10.4 80.5- 5.0 1.3---- 0.0------------
1956-10-20 12.9 14.8 9.2 5.2 85.5- 7.7 0.7---- 0.9------------
1956-10-19 11.4 13.9 9.4 7.4 82.3- 7.0 6.0---- 6.1------------
1956-10-18 11.0 14.5 6.5 0.2 69.0- 7.7 4.3---- 0.3------------
1956-10-17 8.8 13.3 0.6 -2.4 66.0- 0.0 1.7---- 0.0------------
1956-10-16 5.0 10.8 -0.1 -3.0 77.3- 0.0 1.3---- 0.0------------
1956-10-15 3.9 9.7 1.2 -1.0 85.3- 2.0 1.0---- 0.0------------
1956-10-14 8.0 10.1 6.5 7.0 88.0- 5.7 8.0---- 4.3------------
1956-10-13 9.1 10.8 7.3 4.0 72.0- 8.0 6.7---- 0.0------------
1956-10-12 9.8 12.1 0.7 -2.7 64.5- 3.3 3.0---- 0.0------------
1956-10-11 3.4 8.7 -2.6 -6.4 79.5- 2.0 1.3---- 0.0------------
1956-10-10 3.2 6.7 1.3 4.2 74.8- 3.3 2.3---- 0.0------------
1956-10-09 5.0 9.0 -1.1 -4.1 85.0- 6.0 1.0---- 1.5------------
1956-10-08 4.7 8.3 1.4 -1.7 84.8- 5.7 0.7---- 0.0------------
1956-10-07 5.1 7.9 3.6 2.4 76.5- 4.7 9.0---- 0.0------------
1956-10-06 3.9 10.2 0.4 6.8 92.0- 8.0 4.7---- 46.4------------
1956-10-05 10.6 14.1 7.8 3.9 71.8- 6.7 3.0---- 13.7------------
1956-10-04 10.2 14.5 8.7 8.9 96.8- 5.3 0.7---- 9.0------------
1956-10-03 16.3 21.6 13.2 16.8 71.3- 7.0 7.0---- 4.6------------
1956-10-02 21.2 24.5 15.3 10.7 48.5- 1.3 9.0---- 0.0------------
1956-10-01 17.8 23.1 11.4 7.5 64.3- 2.3 4.0---- 0.0------------
1956-09-30 14.6 19.6 9.4 4.9 86.0- 1.0 0.7---- 0.0------------
1956-09-29 17.3 19.8 13.4 9.8 67.5- 4.7 4.7---- 0.0------------
1956-09-28 14.0 16.7 12.2 9.3 75.0- 4.0 3.7---- 0.0------------
1956-09-27 15.4 21.8 12.8 9.3 67.3- 4.0 4.0---- 4.5------------
1956-09-26 16.3 22.0 9.9 2.4 44.8- 0.0 3.7---- 0.0------------
1956-09-25 14.3 20.9 8.5 4.0 63.3- 0.3 3.3---- 0.0------------
1956-09-24 12.4 18.1 7.7 6.0 81.0- 0.0 3.7---- 0.0------------
1956-09-23 11.4 15.5 6.4 4.6 82.8- 0.0 3.3---- 0.0------------
1956-09-22 13.6 19.2 5.7 5.1 75.5- 0.0 2.0---- 0.0------------
1956-09-21 11.4 18.9 5.6 1.1 74.5- 0.0 0.3---- 0.0------------
1956-09-20 11.1 17.2 4.3 0.6 58.8- 2.7 3.0---- 0.0------------
1956-09-19 8.5 14.1 1.1 -1.3 83.5- 0.3 2.0---- 0.0------------
1956-09-18 6.7 11.5 5.3 3.2 89.5- 4.7 1.0---- 0.0------------
1956-09-17 8.5 12.3 7.7 7.8 93.0- 8.0 3.0---- 9.3------------
1956-09-16 12.7 18.3 7.6 6.0 85.0- 6.3 2.0---- 0.0------------
1956-09-15 11.8 15.3 4.9 1.4 83.3- 4.7 2.7---- 0.0------------
1956-09-14 6.7 9.4 5.7 1.7 92.3- 5.3 1.7---- 0.0------------
1956-09-13 7.6 10.7 6.5 5.9 86.5- 6.7 5.0---- 10.6------------
1956-09-12 11.7 15.2 8.7 8.8 80.8- 7.3 6.3---- 19.5------------
1956-09-11 15.7 21.0 14.0 12.3 83.8- 6.0 2.7---- 6.2------------
188.6 ms

 

Źródłem pochodzenia danych jest Instytut Meteorologii i Gospodarki Wodnej – Państwowy Instytut Badawczy. Dane Instytutu Meteorologii i Gospodarki Wodnej – Państwowego Instytutu Badawczego zostały przetworzone.

Dane źródłowe można odnaleźć na stronie https://dane.imgw.pl